sensor_id;sensor_type;location;lat;lon;timestamp;temperature;humidity
67379;DHT22;54262;44.642;-0.974;2023-03-05T00:02:07;1.00;99.90
67379;DHT22;54262;44.642;-0.974;2023-03-05T00:04:33;0.90;99.90
67379;DHT22;54262;44.642;-0.974;2023-03-05T00:06:59;0.90;99.90
67379;DHT22;54262;44.642;-0.974;2023-03-05T00:09:25;0.80;99.90
67379;DHT22;54262;44.642;-0.974;2023-03-05T00:11:50;0.80;99.90
67379;DHT22;54262;44.642;-0.974;2023-03-05T00:14:16;0.90;99.90
67379;DHT22;54262;44.642;-0.974;2023-03-05T00:16:42;0.80;99.90
67379;DHT22;54262;44.642;-0.974;2023-03-05T00:19:08;0.70;99.90
67379;DHT22;54262;44.642;-0.974;2023-03-05T00:21:39;0.70;99.90
67379;DHT22;54262;44.642;-0.974;2023-03-05T00:24:14;0.70;99.90
67379;DHT22;54262;44.642;-0.974;2023-03-05T00:26:42;0.60;99.90
67379;DHT22;54262;44.642;-0.974;2023-03-05T00:29:08;0.70;99.90
67379;DHT22;54262;44.642;-0.974;2023-03-05T00:31:38;0.70;99.90
67379;DHT22;54262;44.642;-0.974;2023-03-05T00:34:07;0.70;99.90
67379;DHT22;54262;44.642;-0.974;2023-03-05T00:36:34;0.60;99.90
67379;DHT22;54262;44.642;-0.974;2023-03-05T00:39:00;0.70;99.90
67379;DHT22;54262;44.642;-0.974;2023-03-05T00:41:26;0.50;99.90
67379;DHT22;54262;44.642;-0.974;2023-03-05T00:43:52;0.60;99.90
67379;DHT22;54262;44.642;-0.974;2023-03-05T00:46:17;0.50;99.90
67379;DHT22;54262;44.642;-0.974;2023-03-05T00:48:43;0.50;99.90
67379;DHT22;54262;44.642;-0.974;2023-03-05T00:51:09;0.50;99.90
67379;DHT22;54262;44.642;-0.974;2023-03-05T00:53:35;0.60;99.90
67379;DHT22;54262;44.642;-0.974;2023-03-05T00:56:00;0.50;99.90
67379;DHT22;54262;44.642;-0.974;2023-03-05T00:58:26;0.50;99.90
67379;DHT22;54262;44.642;-0.974;2023-03-05T01:00:52;0.50;99.90
67379;DHT22;54262;44.642;-0.974;2023-03-05T01:03:17;0.40;99.90
67379;DHT22;54262;44.642;-0.974;2023-03-05T01:05:43;0.30;99.90
67379;DHT22;54262;44.642;-0.974;2023-03-05T01:08:12;0.30;99.90
67379;DHT22;54262;44.642;-0.974;2023-03-05T01:10:37;0.40;99.90
67379;DHT22;54262;44.642;-0.974;2023-03-05T01:13:03;0.40;99.90
67379;DHT22;54262;44.642;-0.974;2023-03-05T01:15:32;0.30;99.90
67379;DHT22;54262;44.642;-0.974;2023-03-05T01:17:57;0.40;99.90
67379;DHT22;54262;44.642;-0.974;2023-03-05T01:20:23;0.30;99.90
67379;DHT22;54262;44.642;-0.974;2023-03-05T01:22:51;0.20;99.90
67379;DHT22;54262;44.642;-0.974;2023-03-05T01:25:18;0.20;99.90
67379;DHT22;54262;44.642;-0.974;2023-03-05T01:27:44;0.10;99.90
67379;DHT22;54262;44.642;-0.974;2023-03-05T01:30:12;0.20;99.90
67379;DHT22;54262;44.642;-0.974;2023-03-05T01:32:38;0.30;99.90
67379;DHT22;54262;44.642;-0.974;2023-03-05T01:35:05;0.30;99.90
67379;DHT22;54262;44.642;-0.974;2023-03-05T01:37:31;0.10;99.90
67379;DHT22;54262;44.642;-0.974;2023-03-05T01:39:57;0.10;99.90
67379;DHT22;54262;44.642;-0.974;2023-03-05T01:42:22;0.10;99.90
67379;DHT22;54262;44.642;-0.974;2023-03-05T01:45:09;0.10;99.90
67379;DHT22;54262;44.642;-0.974;2023-03-05T01:47:35;0.00;99.90
67379;DHT22;54262;44.642;-0.974;2023-03-05T01:50:03;0.00;99.90
67379;DHT22;54262;44.642;-0.974;2023-03-05T01:52:30;0.00;99.90
67379;DHT22;54262;44.642;-0.974;2023-03-05T01:55:05;0.00;99.90
67379;DHT22;54262;44.642;-0.974;2023-03-05T01:57:39;0.00;99.90
67379;DHT22;54262;44.642;-0.974;2023-03-05T02:00:33;-0.20;99.90
67379;DHT22;54262;44.642;-0.974;2023-03-05T02:03:01;-0.30;99.90
67379;DHT22;54262;44.642;-0.974;2023-03-05T02:05:30;-0.20;99.90
67379;DHT22;54262;44.642;-0.974;2023-03-05T02:07:58;-0.10;99.90
67379;DHT22;54262;44.642;-0.974;2023-03-05T02:10:33;-0.10;99.90
67379;DHT22;54262;44.642;-0.974;2023-03-05T02:13:02;-0.10;99.90
67379;DHT22;54262;44.642;-0.974;2023-03-05T02:15:29;-0.10;99.90
67379;DHT22;54262;44.642;-0.974;2023-03-05T02:17:55;-0.10;99.90
67379;DHT22;54262;44.642;-0.974;2023-03-05T02:20:29;-0.20;99.90
67379;DHT22;54262;44.642;-0.974;2023-03-05T02:22:56;-0.20;99.90
67379;DHT22;54262;44.642;-0.974;2023-03-05T02:25:27;-0.30;99.90
67379;DHT22;54262;44.642;-0.974;2023-03-05T02:30:18;-0.20;99.90
67379;DHT22;54262;44.642;-0.974;2023-03-05T02:32:44;-0.20;99.90
67379;DHT22;54262;44.642;-0.974;2023-03-05T02:35:10;-0.30;99.90
67379;DHT22;54262;44.642;-0.974;2023-03-05T02:37:38;-0.20;99.90
67379;DHT22;54262;44.642;-0.974;2023-03-05T02:40:05;-0.20;99.90
67379;DHT22;54262;44.642;-0.974;2023-03-05T02:42:30;-0.20;99.90
67379;DHT22;54262;44.642;-0.974;2023-03-05T02:44:59;-0.40;99.90
67379;DHT22;54262;44.642;-0.974;2023-03-05T02:47:25;-0.30;99.90
67379;DHT22;54262;44.642;-0.974;2023-03-05T02:49:51;-0.30;99.90
67379;DHT22;54262;44.642;-0.974;2023-03-05T02:52:17;-0.40;99.90
67379;DHT22;54262;44.642;-0.974;2023-03-05T02:54:43;-0.30;99.90
67379;DHT22;54262;44.642;-0.974;2023-03-05T02:57:08;-0.40;99.90
67379;DHT22;54262;44.642;-0.974;2023-03-05T02:59:34;-0.30;99.90
67379;DHT22;54262;44.642;-0.974;2023-03-05T03:02:00;-0.50;99.90
67379;DHT22;54262;44.642;-0.974;2023-03-05T03:04:25;-0.40;99.90
67379;DHT22;54262;44.642;-0.974;2023-03-05T03:06:51;-0.30;99.90
67379;DHT22;54262;44.642;-0.974;2023-03-05T03:09:17;-0.30;99.90
67379;DHT22;54262;44.642;-0.974;2023-03-05T03:11:42;-0.30;99.90
67379;DHT22;54262;44.642;-0.974;2023-03-05T03:14:08;-0.30;99.90
67379;DHT22;54262;44.642;-0.974;2023-03-05T03:16:34;-0.30;99.90
67379;DHT22;54262;44.642;-0.974;2023-03-05T03:18:59;-0.40;99.90
67379;DHT22;54262;44.642;-0.974;2023-03-05T03:21:25;-0.40;99.90
67379;DHT22;54262;44.642;-0.974;2023-03-05T03:23:51;-0.50;99.90
67379;DHT22;54262;44.642;-0.974;2023-03-05T03:26:17;-0.70;99.90
67379;DHT22;54262;44.642;-0.974;2023-03-05T03:28:43;-0.80;99.90
67379;DHT22;54262;44.642;-0.974;2023-03-05T03:31:09;-0.70;99.90
67379;DHT22;54262;44.642;-0.974;2023-03-05T03:33:35;-0.60;99.90
67379;DHT22;54262;44.642;-0.974;2023-03-05T03:36:01;-0.70;99.90
67379;DHT22;54262;44.642;-0.974;2023-03-05T03:38:27;-0.80;99.90
67379;DHT22;54262;44.642;-0.974;2023-03-05T03:40:53;-0.70;99.90
67379;DHT22;54262;44.642;-0.974;2023-03-05T03:43:19;-0.60;99.90
67379;DHT22;54262;44.642;-0.974;2023-03-05T03:45:44;-0.70;99.90
67379;DHT22;54262;44.642;-0.974;2023-03-05T03:48:10;-0.80;99.90
67379;DHT22;54262;44.642;-0.974;2023-03-05T03:50:40;-0.80;99.90
67379;DHT22;54262;44.642;-0.974;2023-03-05T03:53:06;-0.80;99.90
67379;DHT22;54262;44.642;-0.974;2023-03-05T03:55:33;-0.70;99.90
67379;DHT22;54262;44.642;-0.974;2023-03-05T03:57:59;-0.70;99.90
67379;DHT22;54262;44.642;-0.974;2023-03-05T04:00:24;-0.70;99.90
67379;DHT22;54262;44.642;-0.974;2023-03-05T04:02:50;-0.80;99.90
67379;DHT22;54262;44.642;-0.974;2023-03-05T04:05:16;-0.90;99.90
67379;DHT22;54262;44.642;-0.974;2023-03-05T04:07:41;-0.90;99.90
67379;DHT22;54262;44.642;-0.974;2023-03-05T04:10:07;-0.80;99.90
67379;DHT22;54262;44.642;-0.974;2023-03-05T04:12:33;-0.90;99.90
67379;DHT22;54262;44.642;-0.974;2023-03-05T04:14:59;-0.90;99.90
67379;DHT22;54262;44.642;-0.974;2023-03-05T04:17:28;-0.90;99.90
67379;DHT22;54262;44.642;-0.974;2023-03-05T04:19:53;-0.90;99.90
67379;DHT22;54262;44.642;-0.974;2023-03-05T04:22:19;-1.10;99.90
67379;DHT22;54262;44.642;-0.974;2023-03-05T04:24:45;-1.20;99.90
67379;DHT22;54262;44.642;-0.974;2023-03-05T04:27:10;-0.90;99.90
67379;DHT22;54262;44.642;-0.974;2023-03-05T04:29:36;-0.90;99.90
67379;DHT22;54262;44.642;-0.974;2023-03-05T04:32:02;-0.90;99.90
67379;DHT22;54262;44.642;-0.974;2023-03-05T04:34:28;-0.90;99.90
67379;DHT22;54262;44.642;-0.974;2023-03-05T04:36:54;-1.00;99.90
67379;DHT22;54262;44.642;-0.974;2023-03-05T04:39:20;-1.10;99.90
67379;DHT22;54262;44.642;-0.974;2023-03-05T04:41:46;-1.10;99.90
67379;DHT22;54262;44.642;-0.974;2023-03-05T04:44:12;-1.10;99.90
67379;DHT22;54262;44.642;-0.974;2023-03-05T04:46:38;-1.10;99.90
67379;DHT22;54262;44.642;-0.974;2023-03-05T04:49:07;-1.00;99.90
67379;DHT22;54262;44.642;-0.974;2023-03-05T04:51:33;-1.00;99.90
67379;DHT22;54262;44.642;-0.974;2023-03-05T04:53:59;-1.10;99.90
67379;DHT22;54262;44.642;-0.974;2023-03-05T04:56:25;-1.00;99.90
67379;DHT22;54262;44.642;-0.974;2023-03-05T04:58:51;-1.10;99.90
67379;DHT22;54262;44.642;-0.974;2023-03-05T05:01:17;-1.10;99.90
67379;DHT22;54262;44.642;-0.974;2023-03-05T05:03:43;-1.20;99.90
67379;DHT22;54262;44.642;-0.974;2023-03-05T05:06:10;-1.20;99.90
67379;DHT22;54262;44.642;-0.974;2023-03-05T05:08:36;-1.20;99.90
67379;DHT22;54262;44.642;-0.974;2023-03-05T05:11:05;-1.30;99.90
67379;DHT22;54262;44.642;-0.974;2023-03-05T05:13:31;-1.20;99.90
67379;DHT22;54262;44.642;-0.974;2023-03-05T05:15:58;-1.30;99.90
67379;DHT22;54262;44.642;-0.974;2023-03-05T05:18:24;-1.30;99.90
67379;DHT22;54262;44.642;-0.974;2023-03-05T05:20:50;-1.30;99.90
67379;DHT22;54262;44.642;-0.974;2023-03-05T05:23:16;-1.40;99.90
67379;DHT22;54262;44.642;-0.974;2023-03-05T05:25:42;-1.40;99.90
67379;DHT22;54262;44.642;-0.974;2023-03-05T05:28:09;-1.40;99.90
67379;DHT22;54262;44.642;-0.974;2023-03-05T05:30:35;-1.40;99.90
67379;DHT22;54262;44.642;-0.974;2023-03-05T05:33:01;-1.40;99.90
67379;DHT22;54262;44.642;-0.974;2023-03-05T05:35:26;-1.40;99.90
67379;DHT22;54262;44.642;-0.974;2023-03-05T05:37:52;-1.50;99.90
67379;DHT22;54262;44.642;-0.974;2023-03-05T05:40:18;-1.50;99.90
67379;DHT22;54262;44.642;-0.974;2023-03-05T05:42:43;-1.40;99.90
67379;DHT22;54262;44.642;-0.974;2023-03-05T05:45:10;-1.50;99.90
67379;DHT22;54262;44.642;-0.974;2023-03-05T05:47:36;-1.60;99.90
67379;DHT22;54262;44.642;-0.974;2023-03-05T05:50:03;-1.60;99.90
67379;DHT22;54262;44.642;-0.974;2023-03-05T05:52:28;-1.60;99.90
67379;DHT22;54262;44.642;-0.974;2023-03-05T05:54:57;-1.60;99.90
67379;DHT22;54262;44.642;-0.974;2023-03-05T05:57:22;-1.60;99.90
67379;DHT22;54262;44.642;-0.974;2023-03-05T05:59:49;-1.60;99.90
67379;DHT22;54262;44.642;-0.974;2023-03-05T06:02:15;-1.70;99.90
67379;DHT22;54262;44.642;-0.974;2023-03-05T06:04:40;-1.70;99.90
67379;DHT22;54262;44.642;-0.974;2023-03-05T06:07:06;-1.70;99.90
67379;DHT22;54262;44.642;-0.974;2023-03-05T06:09:34;-1.60;99.90
67379;DHT22;54262;44.642;-0.974;2023-03-05T06:12:00;-1.60;99.90
67379;DHT22;54262;44.642;-0.974;2023-03-05T06:14:26;-1.60;99.90
67379;DHT22;54262;44.642;-0.974;2023-03-05T06:16:51;-1.70;99.90
67379;DHT22;54262;44.642;-0.974;2023-03-05T06:19:17;-1.70;99.90
67379;DHT22;54262;44.642;-0.974;2023-03-05T06:21:43;-1.70;99.90
67379;DHT22;54262;44.642;-0.974;2023-03-05T06:24:12;-1.70;99.90
67379;DHT22;54262;44.642;-0.974;2023-03-05T06:26:38;-1.70;99.90
67379;DHT22;54262;44.642;-0.974;2023-03-05T06:29:04;-1.80;99.90
67379;DHT22;54262;44.642;-0.974;2023-03-05T06:31:29;-1.80;99.90
67379;DHT22;54262;44.642;-0.974;2023-03-05T06:33:58;-1.80;99.90
67379;DHT22;54262;44.642;-0.974;2023-03-05T06:36:27;-1.80;99.90
67379;DHT22;54262;44.642;-0.974;2023-03-05T06:38:53;-1.80;99.90
67379;DHT22;54262;44.642;-0.974;2023-03-05T06:41:24;-1.50;99.90
67379;DHT22;54262;44.642;-0.974;2023-03-05T06:43:50;-1.20;99.90
67379;DHT22;54262;44.642;-0.974;2023-03-05T06:46:20;-1.20;99.90
67379;DHT22;54262;44.642;-0.974;2023-03-05T06:48:47;-1.00;99.90
67379;DHT22;54262;44.642;-0.974;2023-03-05T06:53:39;-1.20;99.90
67379;DHT22;54262;44.642;-0.974;2023-03-05T06:56:05;-1.40;99.90
67379;DHT22;54262;44.642;-0.974;2023-03-05T06:58:31;-1.40;99.90
67379;DHT22;54262;44.642;-0.974;2023-03-05T07:00:56;-1.40;99.90
67379;DHT22;54262;44.642;-0.974;2023-03-05T07:03:22;-1.50;99.90
67379;DHT22;54262;44.642;-0.974;2023-03-05T07:05:48;-1.50;99.90
67379;DHT22;54262;44.642;-0.974;2023-03-05T07:08:17;-1.40;99.90
67379;DHT22;54262;44.642;-0.974;2023-03-05T07:10:43;-1.40;99.90
67379;DHT22;54262;44.642;-0.974;2023-03-05T07:13:09;-1.40;99.90
67379;DHT22;54262;44.642;-0.974;2023-03-05T07:15:38;-1.50;99.90
67379;DHT22;54262;44.642;-0.974;2023-03-05T07:18:05;-1.40;99.90
67379;DHT22;54262;44.642;-0.974;2023-03-05T07:20:34;-1.30;99.90
67379;DHT22;54262;44.642;-0.974;2023-03-05T07:22:59;-1.30;99.90
67379;DHT22;54262;44.642;-0.974;2023-03-05T07:25:25;-1.30;99.90
67379;DHT22;54262;44.642;-0.974;2023-03-05T07:27:51;-1.30;99.90
67379;DHT22;54262;44.642;-0.974;2023-03-05T07:30:17;-1.20;99.90
67379;DHT22;54262;44.642;-0.974;2023-03-05T07:32:43;-1.10;99.90
67379;DHT22;54262;44.642;-0.974;2023-03-05T07:35:08;-1.00;99.90
67379;DHT22;54262;44.642;-0.974;2023-03-05T07:37:34;-0.80;99.90
67379;DHT22;54262;44.642;-0.974;2023-03-05T07:40:00;-0.80;99.90
67379;DHT22;54262;44.642;-0.974;2023-03-05T07:42:25;-0.70;99.90
67379;DHT22;54262;44.642;-0.974;2023-03-05T07:44:51;-0.70;99.90
67379;DHT22;54262;44.642;-0.974;2023-03-05T07:47:17;-0.60;99.90
67379;DHT22;54262;44.642;-0.974;2023-03-05T07:49:42;-0.40;99.90
67379;DHT22;54262;44.642;-0.974;2023-03-05T07:52:08;-0.20;99.90
67379;DHT22;54262;44.642;-0.974;2023-03-05T07:54:37;-0.10;99.90
67379;DHT22;54262;44.642;-0.974;2023-03-05T07:57:04;-0.10;99.90
67379;DHT22;54262;44.642;-0.974;2023-03-05T07:59:30;0.10;99.90
67379;DHT22;54262;44.642;-0.974;2023-03-05T08:01:56;0.10;99.90
67379;DHT22;54262;44.642;-0.974;2023-03-05T08:04:23;0.20;99.90
67379;DHT22;54262;44.642;-0.974;2023-03-05T08:06:49;0.30;99.90
67379;DHT22;54262;44.642;-0.974;2023-03-05T08:09:15;0.50;99.90
67379;DHT22;54262;44.642;-0.974;2023-03-05T08:11:41;0.60;99.90
67379;DHT22;54262;44.642;-0.974;2023-03-05T08:14:07;0.70;99.90
67379;DHT22;54262;44.642;-0.974;2023-03-05T08:16:33;0.70;99.90
67379;DHT22;54262;44.642;-0.974;2023-03-05T08:18:59;0.90;99.90
67379;DHT22;54262;44.642;-0.974;2023-03-05T08:21:32;1.00;99.90
67379;DHT22;54262;44.642;-0.974;2023-03-05T08:24:03;1.10;99.90
67379;DHT22;54262;44.642;-0.974;2023-03-05T08:26:31;1.20;99.90
67379;DHT22;54262;44.642;-0.974;2023-03-05T08:28:57;1.40;99.90
67379;DHT22;54262;44.642;-0.974;2023-03-05T08:31:24;1.40;99.90
67379;DHT22;54262;44.642;-0.974;2023-03-05T08:33:52;1.60;99.90
67379;DHT22;54262;44.642;-0.974;2023-03-05T08:36:18;1.70;99.90
67379;DHT22;54262;44.642;-0.974;2023-03-05T08:38:44;1.70;99.90
67379;DHT22;54262;44.642;-0.974;2023-03-05T08:41:11;1.80;99.90
67379;DHT22;54262;44.642;-0.974;2023-03-05T08:43:37;1.90;99.90
67379;DHT22;54262;44.642;-0.974;2023-03-05T08:46:04;2.10;99.90
67379;DHT22;54262;44.642;-0.974;2023-03-05T08:48:30;2.30;99.90
67379;DHT22;54262;44.642;-0.974;2023-03-05T08:50:57;2.40;99.90
67379;DHT22;54262;44.642;-0.974;2023-03-05T08:53:23;2.60;99.90
67379;DHT22;54262;44.642;-0.974;2023-03-05T08:55:56;2.70;99.90
67379;DHT22;54262;44.642;-0.974;2023-03-05T08:58:22;2.90;99.90
67379;DHT22;54262;44.642;-0.974;2023-03-05T09:00:49;3.00;99.90
67379;DHT22;54262;44.642;-0.974;2023-03-05T09:03:14;3.30;99.90
67379;DHT22;54262;44.642;-0.974;2023-03-05T09:05:44;3.40;99.90
67379;DHT22;54262;44.642;-0.974;2023-03-05T09:08:10;3.60;99.90
67379;DHT22;54262;44.642;-0.974;2023-03-05T09:10:35;3.70;99.90
67379;DHT22;54262;44.642;-0.974;2023-03-05T09:13:01;3.90;99.90
67379;DHT22;54262;44.642;-0.974;2023-03-05T09:15:28;3.90;99.90
67379;DHT22;54262;44.642;-0.974;2023-03-05T09:17:54;4.00;99.90
67379;DHT22;54262;44.642;-0.974;2023-03-05T09:20:21;4.20;99.90
67379;DHT22;54262;44.642;-0.974;2023-03-05T09:22:46;4.30;99.90
67379;DHT22;54262;44.642;-0.974;2023-03-05T09:25:12;4.50;99.90
67379;DHT22;54262;44.642;-0.974;2023-03-05T09:27:38;4.70;99.90
67379;DHT22;54262;44.642;-0.974;2023-03-05T09:30:05;4.80;99.90
67379;DHT22;54262;44.642;-0.974;2023-03-05T09:32:31;4.80;99.90
67379;DHT22;54262;44.642;-0.974;2023-03-05T09:34:57;5.00;99.90
67379;DHT22;54262;44.642;-0.974;2023-03-05T09:37:23;5.20;99.90
67379;DHT22;54262;44.642;-0.974;2023-03-05T09:39:49;5.20;99.90
67379;DHT22;54262;44.642;-0.974;2023-03-05T09:42:28;5.30;99.90
67379;DHT22;54262;44.642;-0.974;2023-03-05T09:45:19;5.40;99.90
67379;DHT22;54262;44.642;-0.974;2023-03-05T09:50:38;5.90;99.90
67379;DHT22;54262;44.642;-0.974;2023-03-05T09:58:04;5.90;99.90
67379;DHT22;54262;44.642;-0.974;2023-03-05T10:00:49;6.20;99.90
67379;DHT22;54262;44.642;-0.974;2023-03-05T10:03:21;6.30;99.90
67379;DHT22;54262;44.642;-0.974;2023-03-05T10:06:09;6.60;99.90
67379;DHT22;54262;44.642;-0.974;2023-03-05T10:14:00;6.70;99.90
67379;DHT22;54262;44.642;-0.974;2023-03-05T10:16:54;6.70;99.90
67379;DHT22;54262;44.642;-0.974;2023-03-05T10:28:22;8.40;99.90
67379;DHT22;54262;44.642;-0.974;2023-03-05T10:33:58;7.60;99.90
67379;DHT22;54262;44.642;-0.974;2023-03-05T10:40:10;8.30;99.90
67379;DHT22;54262;44.642;-0.974;2023-03-05T10:42:22;9.00;99.90
67379;DHT22;54262;44.642;-0.974;2023-03-05T10:44:55;10.20;97.70
67379;DHT22;54262;44.642;-0.974;2023-03-05T10:47:58;10.60;93.10
67379;DHT22;54262;44.642;-0.974;2023-03-05T10:50:30;10.90;94.30
67379;DHT22;54262;44.642;-0.974;2023-03-05T10:55:38;10.40;93.70
67379;DHT22;54262;44.642;-0.974;2023-03-05T10:58:15;11.20;90.00
67379;DHT22;54262;44.642;-0.974;2023-03-05T11:01:04;9.80;96.50
67379;DHT22;54262;44.642;-0.974;2023-03-05T11:03:55;10.00;98.40
67379;DHT22;54262;44.642;-0.974;2023-03-05T11:09:01;10.20;98.90
67379;DHT22;54262;44.642;-0.974;2023-03-05T11:11:39;9.80;96.60
67379;DHT22;54262;44.642;-0.974;2023-03-05T11:14:07;10.50;93.70
67379;DHT22;54262;44.642;-0.974;2023-03-05T11:16:48;12.30;91.60
67379;DHT22;54262;44.642;-0.974;2023-03-05T11:21:40;13.90;75.20
67379;DHT22;54262;44.642;-0.974;2023-03-05T11:24:12;12.60;78.50
67379;DHT22;54262;44.642;-0.974;2023-03-05T11:26:49;11.90;89.00
67379;DHT22;54262;44.642;-0.974;2023-03-05T11:29:21;11.70;83.00
67379;DHT22;54262;44.642;-0.974;2023-03-05T11:31:47;10.70;88.30
67379;DHT22;54262;44.642;-0.974;2023-03-05T11:37:04;12.40;90.90
67379;DHT22;54262;44.642;-0.974;2023-03-05T11:39:29;13.90;79.00
67379;DHT22;54262;44.642;-0.974;2023-03-05T11:44:55;12.60;75.50
67379;DHT22;54262;44.642;-0.974;2023-03-05T11:52:56;12.30;90.00
67379;DHT22;54262;44.642;-0.974;2023-03-05T11:55:48;14.40;69.40
67379;DHT22;54262;44.642;-0.974;2023-03-05T11:58:30;13.20;68.00
67379;DHT22;54262;44.642;-0.974;2023-03-05T12:00:59;14.00;76.40
67379;DHT22;54262;44.642;-0.974;2023-03-05T12:03:29;14.60;70.90
67379;DHT22;54262;44.642;-0.974;2023-03-05T12:06:00;14.70;64.00
67379;DHT22;54262;44.642;-0.974;2023-03-05T12:08:32;13.70;57.20
67379;DHT22;54262;44.642;-0.974;2023-03-05T12:11:05;14.50;73.00
67379;DHT22;54262;44.642;-0.974;2023-03-05T12:13:39;15.30;58.00
67379;DHT22;54262;44.642;-0.974;2023-03-05T12:21:39;15.40;60.30
67379;DHT22;54262;44.642;-0.974;2023-03-05T12:32:00;15.60;64.00
67379;DHT22;54262;44.642;-0.974;2023-03-05T12:34:43;16.00;61.70
67379;DHT22;54262;44.642;-0.974;2023-03-05T12:39:59;15.70;55.20
67379;DHT22;54262;44.642;-0.974;2023-03-05T12:55:37;16.20;56.00
67379;DHT22;54262;44.642;-0.974;2023-03-05T13:00:47;14.20;50.60
67379;DHT22;54262;44.642;-0.974;2023-03-05T13:03:20;15.00;58.30
67379;DHT22;54262;44.642;-0.974;2023-03-05T13:05:55;15.70;56.60
67379;DHT22;54262;44.642;-0.974;2023-03-05T13:08:24;14.30;48.70
67379;DHT22;54262;44.642;-0.974;2023-03-05T13:10:58;15.60;58.00
67379;DHT22;54262;44.642;-0.974;2023-03-05T13:13:26;16.30;54.90
67379;DHT22;54262;44.642;-0.974;2023-03-05T13:15:53;15.80;55.30
67379;DHT22;54262;44.642;-0.974;2023-03-05T13:18:22;16.40;54.40
67379;DHT22;54262;44.642;-0.974;2023-03-05T13:21:00;16.50;53.90
67379;DHT22;54262;44.642;-0.974;2023-03-05T13:23:27;16.60;53.30
67379;DHT22;54262;44.642;-0.974;2023-03-05T13:25:57;16.70;53.40
67379;DHT22;54262;44.642;-0.974;2023-03-05T13:28:24;15.60;49.80
67379;DHT22;54262;44.642;-0.974;2023-03-05T13:30:57;15.70;56.70
67379;DHT22;54262;44.642;-0.974;2023-03-05T13:33:29;15.00;51.40
67379;DHT22;54262;44.642;-0.974;2023-03-05T13:35:56;16.00;54.60
67379;DHT22;54262;44.642;-0.974;2023-03-05T13:43:29;16.40;53.70
67379;DHT22;54262;44.642;-0.974;2023-03-05T13:45:54;16.70;52.50
67379;DHT22;54262;44.642;-0.974;2023-03-05T13:48:25;16.70;51.40
67379;DHT22;54262;44.642;-0.974;2023-03-05T13:50:56;16.70;52.50
67379;DHT22;54262;44.642;-0.974;2023-03-05T13:53:26;16.70;51.00
67379;DHT22;54262;44.642;-0.974;2023-03-05T13:56:03;15.60;57.50
67379;DHT22;54262;44.642;-0.974;2023-03-05T13:58:51;16.50;53.70
67379;DHT22;54262;44.642;-0.974;2023-03-05T14:04:04;15.90;56.50
67379;DHT22;54262;44.642;-0.974;2023-03-05T14:06:51;16.60;52.90
67379;DHT22;54262;44.642;-0.974;2023-03-05T14:09:29;15.50;51.40
67379;DHT22;54262;44.642;-0.974;2023-03-05T14:12:02;15.90;55.40
67379;DHT22;54262;44.642;-0.974;2023-03-05T14:14:30;15.90;53.60
67379;DHT22;54262;44.642;-0.974;2023-03-05T14:19:45;16.40;53.20
67379;DHT22;54262;44.642;-0.974;2023-03-05T14:22:33;16.70;50.40
67379;DHT22;54262;44.642;-0.974;2023-03-05T14:25:00;16.80;51.40
67379;DHT22;54262;44.642;-0.974;2023-03-05T14:27:29;16.40;48.80
67379;DHT22;54262;44.642;-0.974;2023-03-05T14:29:56;16.00;52.80
67379;DHT22;54262;44.642;-0.974;2023-03-05T14:32:32;16.60;52.60
67379;DHT22;54262;44.642;-0.974;2023-03-05T14:35:01;16.80;51.70
67379;DHT22;54262;44.642;-0.974;2023-03-05T14:37:35;16.50;48.80
67379;DHT22;54262;44.642;-0.974;2023-03-05T14:42:50;15.60;51.60
67379;DHT22;54262;44.642;-0.974;2023-03-05T14:45:21;16.40;51.80
67379;DHT22;54262;44.642;-0.974;2023-03-05T14:47:49;16.50;52.20
67379;DHT22;54262;44.642;-0.974;2023-03-05T14:50:20;16.00;51.30
67379;DHT22;54262;44.642;-0.974;2023-03-05T14:52:48;16.30;52.90
67379;DHT22;54262;44.642;-0.974;2023-03-05T14:55:18;16.50;52.90
67379;DHT22;54262;44.642;-0.974;2023-03-05T14:57:44;15.90;53.40
67379;DHT22;54262;44.642;-0.974;2023-03-05T15:00:22;16.30;52.00
67379;DHT22;54262;44.642;-0.974;2023-03-05T15:02:48;16.70;51.80
67379;DHT22;54262;44.642;-0.974;2023-03-05T15:05:14;16.10;51.30
67379;DHT22;54262;44.642;-0.974;2023-03-05T15:07:41;15.20;54.10
67379;DHT22;54262;44.642;-0.974;2023-03-05T15:10:07;15.50;56.00
67379;DHT22;54262;44.642;-0.974;2023-03-05T15:12:33;16.20;51.10
67379;DHT22;54262;44.642;-0.974;2023-03-05T15:14:59;15.40;54.50
67379;DHT22;54262;44.642;-0.974;2023-03-05T15:17:33;15.30;55.40
67379;DHT22;54262;44.642;-0.974;2023-03-05T15:20:00;16.20;54.20
67379;DHT22;54262;44.642;-0.974;2023-03-05T15:22:25;16.10;52.30
67379;DHT22;54262;44.642;-0.974;2023-03-05T15:24:51;16.30;54.00
67379;DHT22;54262;44.642;-0.974;2023-03-05T15:27:17;16.40;52.40
67379;DHT22;54262;44.642;-0.974;2023-03-05T15:29:43;16.30;52.30
67379;DHT22;54262;44.642;-0.974;2023-03-05T15:32:09;16.10;54.00
67379;DHT22;54262;44.642;-0.974;2023-03-05T15:34:35;16.40;53.60
67379;DHT22;54262;44.642;-0.974;2023-03-05T15:37:02;16.10;53.00
67379;DHT22;54262;44.642;-0.974;2023-03-05T15:39:28;16.30;52.70
67379;DHT22;54262;44.642;-0.974;2023-03-05T15:41:54;16.10;53.70
67379;DHT22;54262;44.642;-0.974;2023-03-05T15:44:20;16.30;52.60
67379;DHT22;54262;44.642;-0.974;2023-03-05T15:46:46;16.30;52.40
67379;DHT22;54262;44.642;-0.974;2023-03-05T15:49:14;15.90;53.70
67379;DHT22;54262;44.642;-0.974;2023-03-05T15:51:40;15.50;52.30
67379;DHT22;54262;44.642;-0.974;2023-03-05T15:54:06;16.00;53.70
67379;DHT22;54262;44.642;-0.974;2023-03-05T15:56:31;16.00;52.20
67379;DHT22;54262;44.642;-0.974;2023-03-05T15:58:57;16.20;53.20
67379;DHT22;54262;44.642;-0.974;2023-03-05T16:01:23;16.00;50.30
67379;DHT22;54262;44.642;-0.974;2023-03-05T16:03:49;14.70;53.30
67379;DHT22;54262;44.642;-0.974;2023-03-05T16:06:16;15.40;56.30
67379;DHT22;54262;44.642;-0.974;2023-03-05T16:08:47;15.50;53.30
67379;DHT22;54262;44.642;-0.974;2023-03-05T16:11:12;15.80;54.40
67379;DHT22;54262;44.642;-0.974;2023-03-05T16:13:39;15.80;52.90
67379;DHT22;54262;44.642;-0.974;2023-03-05T16:16:06;15.20;52.00
67379;DHT22;54262;44.642;-0.974;2023-03-05T16:18:33;15.60;55.30
67379;DHT22;54262;44.642;-0.974;2023-03-05T16:21:00;15.40;56.30
67379;DHT22;54262;44.642;-0.974;2023-03-05T16:23:26;15.40;55.90
67379;DHT22;54262;44.642;-0.974;2023-03-05T16:25:52;15.60;55.20
67379;DHT22;54262;44.642;-0.974;2023-03-05T16:28:18;14.70;57.50
67379;DHT22;54262;44.642;-0.974;2023-03-05T16:30:44;15.00;58.70
67379;DHT22;54262;44.642;-0.974;2023-03-05T16:33:11;15.30;57.10
67379;DHT22;54262;44.642;-0.974;2023-03-05T16:35:37;15.30;54.90
67379;DHT22;54262;44.642;-0.974;2023-03-05T16:38:03;14.60;53.00
67379;DHT22;54262;44.642;-0.974;2023-03-05T16:40:29;13.20;62.70
67379;DHT22;54262;44.642;-0.974;2023-03-05T16:42:54;14.90;57.30
67379;DHT22;54262;44.642;-0.974;2023-03-05T16:45:20;15.30;56.20
67379;DHT22;54262;44.642;-0.974;2023-03-05T16:47:45;15.30;54.70
67379;DHT22;54262;44.642;-0.974;2023-03-05T16:50:11;13.50;60.10
67379;DHT22;54262;44.642;-0.974;2023-03-05T16:52:37;13.50;56.00
67379;DHT22;54262;44.642;-0.974;2023-03-05T16:55:04;12.70;63.30
67379;DHT22;54262;44.642;-0.974;2023-03-05T16:57:30;13.20;60.00
67379;DHT22;54262;44.642;-0.974;2023-03-05T16:59:56;12.30;65.90
67379;DHT22;54262;44.642;-0.974;2023-03-05T17:02:22;12.20;67.00
67379;DHT22;54262;44.642;-0.974;2023-03-05T17:04:48;11.20;74.10